Alma, New York
Current Conditions -  °F | °C
As of 6:56 PM on Wednesday 28 Jan 2015 (Local Time) from KELZ Reporting Station
Clear Clear  
Wind Chill:   Ceiling: Unl
Heat Index: 17°   Visibility: 10mi
Dew Point: -3°   Wind: 6mph
Humidity: 41%   Direction: 290°WNW
Pressure: 30.21"   Gusts: NA
Location:  42.01°N, 78.06°W
Report Text: KELZ 282356Z AUTO 29005KT 10SM CLR M08/M19 A3021 RMK AO2 SLP274 T10831194 11044 21089 51010
Loading
Personal Weather Stations






























Interactive Weather Map New forecast layout! Learn more

10-Day Weather Forecast

Advertisements
Track Severe Weather on mobile